createdAt,value
2023-01-25T00:00:00.170Z,23.53
2023-01-25T00:02:28.744Z,23.39
2023-01-25T00:04:55.423Z,23.15
2023-01-25T00:07:22.040Z,23.07
2023-01-25T00:09:48.684Z,22.86
2023-01-25T00:12:15.456Z,23.46
2023-01-25T00:14:42.127Z,22.86
2023-01-25T00:17:08.776Z,23.56
2023-01-25T00:19:35.418Z,23.33
2023-01-25T00:22:02.200Z,23.34
2023-01-25T00:24:29.891Z,23.26
2023-01-25T00:26:56.552Z,23.18
2023-01-25T00:29:23.173Z,22.88
2023-01-25T00:31:57.434Z,22.63
2023-01-25T00:34:24.074Z,22.93
2023-01-25T00:37:11.173Z,22.83
2023-01-25T00:39:37.860Z,23.08
2023-01-25T00:42:04.951Z,22.79
2023-01-25T00:44:31.653Z,22.93
2023-01-25T00:46:58.336Z,22.33
2023-01-25T00:49:27.774Z,22.37
2023-01-25T00:51:55.222Z,22.84
2023-01-25T00:54:22.011Z,22.05
2023-01-25T00:56:48.796Z,21.49
2023-01-25T00:59:15.529Z,21.77
2023-01-25T01:01:42.507Z,21.81
2023-01-25T01:04:09.451Z,21.29
2023-01-25T01:06:39.848Z,21.97
2023-01-25T01:09:12.089Z,21.79
2023-01-25T01:11:38.855Z,21.24
2023-01-25T01:14:06.692Z,21.59
2023-01-25T01:16:33.515Z,21.22
2023-01-25T01:19:00.166Z,21.50
2023-01-25T01:21:29.777Z,21.45
2023-01-25T01:23:56.847Z,21.90
2023-01-25T01:26:23.632Z,21.03
2023-01-25T01:28:50.325Z,21.61
2023-01-25T01:31:20.838Z,21.26
2023-01-25T01:33:52.371Z,21.63
2023-01-25T01:36:22.921Z,21.00
2023-01-25T01:38:49.703Z,20.62
2023-01-25T01:41:17.443Z,21.05
2023-01-25T01:43:44.207Z,21.00
2023-01-25T01:46:22.658Z,21.27
2023-01-25T01:49:02.446Z,20.64
2023-01-25T01:51:47.639Z,20.67
2023-01-25T01:54:31.253Z,21.36
2023-01-25T01:57:05.605Z,21.97
2023-01-25T01:59:51.798Z,21.16
2023-01-25T02:02:21.456Z,20.88
2023-01-25T02:04:50.655Z,20.28
2023-01-25T02:07:34.854Z,21.47
2023-01-25T02:10:05.331Z,21.07
2023-01-25T02:12:32.849Z,22.11
2023-01-25T02:14:59.569Z,21.73
2023-01-25T02:17:32.720Z,21.70
2023-01-25T02:20:31.860Z,22.20
2023-01-25T02:23:07.309Z,21.81
2023-01-25T02:25:33.957Z,22.20
2023-01-25T02:28:13.102Z,22.15
2023-01-25T02:30:41.534Z,23.09
2023-01-25T02:33:08.289Z,23.17
2023-01-25T02:35:42.930Z,22.98
2023-01-25T02:38:13.068Z,23.17
2023-01-25T02:41:30.281Z,23.70
2023-01-25T02:43:57.111Z,22.79
2023-01-25T02:46:32.796Z,22.96
2023-01-25T02:49:01.048Z,22.72
2023-01-25T02:51:31.283Z,23.52
2023-01-25T02:53:59.117Z,22.73
2023-01-25T02:56:26.766Z,22.28
2023-01-25T02:58:53.776Z,22.48
2023-01-25T03:01:20.588Z,22.83
2023-01-25T03:03:47.240Z,22.17
2023-01-25T03:06:14.136Z,23.07
2023-01-25T03:08:40.889Z,22.47
2023-01-25T03:11:08.258Z,22.73
2023-01-25T03:13:35.880Z,23.44
2023-01-25T03:16:06.252Z,22.96
2023-01-25T03:18:34.219Z,23.68
2023-01-25T03:21:23.648Z,22.63
2023-01-25T03:24:01.609Z,22.31
2023-01-25T03:26:29.692Z,22.02
2023-01-25T03:28:57.000Z,22.75
2023-01-25T03:31:23.761Z,21.97
2023-01-25T03:33:50.471Z,21.63
2023-01-25T03:36:17.215Z,22.15
2023-01-25T03:38:43.883Z,22.27
2023-01-25T03:41:10.598Z,22.35
2023-01-25T03:43:37.294Z,21.79
2023-01-25T03:46:04.035Z,21.38
2023-01-25T03:48:30.744Z,21.17
2023-01-25T03:51:02.008Z,22.25
2023-01-25T03:53:30.569Z,22.20
2023-01-25T03:56:04.749Z,22.03
2023-01-25T03:58:31.579Z,22.38
2023-01-25T04:01:00.217Z,21.43
2023-01-25T04:03:30.115Z,22.15
2023-01-25T04:05:58.254Z,21.50
2023-01-25T04:08:25.753Z,21.67
2023-01-25T04:10:54.832Z,21.54
2023-01-25T04:13:23.135Z,21.39
2023-01-25T04:15:50.466Z,21.68
2023-01-25T04:18:17.894Z,20.34
2023-01-25T04:20:45.530Z,20.16
2023-01-25T04:23:12.549Z,20.73
2023-01-25T04:25:39.580Z,21.57
2023-01-25T04:28:06.338Z,20.96
2023-01-25T04:30:32.952Z,20.06
2023-01-25T04:33:04.514Z,20.31
2023-01-25T04:35:31.407Z,19.95
2023-01-25T04:37:59.629Z,20.36
2023-01-25T04:40:27.031Z,20.54
2023-01-25T04:42:53.824Z,19.91
2023-01-25T04:45:20.558Z,20.51
2023-01-25T04:47:47.230Z,21.00
2023-01-25T04:50:14.096Z,20.49
2023-01-25T04:52:40.838Z,20.43
2023-01-25T04:55:08.025Z,21.00
2023-01-25T04:57:34.806Z,21.79
2023-01-25T05:00:01.552Z,21.43
2023-01-25T05:02:28.273Z,20.64
2023-01-25T05:04:55.108Z,20.67
2023-01-25T05:07:21.789Z,21.19
2023-01-25T05:09:48.451Z,20.97
2023-01-25T05:12:15.262Z,20.72
2023-01-25T05:14:41.907Z,20.74
2023-01-25T05:17:08.953Z,20.66
2023-01-25T05:19:36.017Z,20.02
2023-01-25T05:22:03.497Z,21.58
2023-01-25T05:24:32.448Z,23.00
2023-01-25T05:26:59.426Z,22.35
2023-01-25T05:29:31.108Z,21.52
2023-01-25T05:32:00.659Z,20.44
2023-01-25T05:34:27.425Z,20.79
2023-01-25T05:36:54.083Z,21.63
2023-01-25T05:39:20.728Z,20.42
2023-01-25T05:41:49.455Z,20.94
2023-01-25T05:44:16.266Z,20.74
2023-01-25T05:46:43.375Z,21.39
2023-01-25T05:49:10.124Z,21.50
2023-01-25T05:51:37.369Z,21.24
2023-01-25T05:54:10.054Z,21.09
2023-01-25T05:56:36.678Z,21.32
2023-01-25T05:59:03.332Z,21.71
2023-01-25T06:01:30.187Z,21.88
2023-01-25T06:03:56.933Z,21.52
2023-01-25T06:06:24.964Z,21.91
2023-01-25T06:08:51.700Z,21.23
2023-01-25T06:11:21.604Z,21.14
2023-01-25T06:13:49.335Z,20.31
2023-01-25T06:16:17.439Z,21.23
2023-01-25T06:18:44.618Z,22.02
2023-01-25T06:21:11.252Z,21.37
2023-01-25T06:23:38.506Z,21.15
2023-01-25T06:26:08.803Z,21.48
2023-01-25T06:28:37.607Z,21.45
2023-01-25T06:31:10.784Z,21.67
2023-01-25T06:33:38.426Z,20.99
2023-01-25T06:36:13.808Z,21.85
2023-01-25T06:38:42.100Z,22.56
2023-01-25T06:41:12.159Z,22.04
2023-01-25T06:43:39.809Z,21.99
2023-01-25T06:46:09.306Z,21.65
2023-01-25T06:48:35.994Z,22.08
2023-01-25T06:51:05.911Z,21.73
2023-01-25T06:53:35.887Z,22.06
2023-01-25T06:56:05.412Z,22.23
2023-01-25T06:58:33.160Z,23.18
2023-01-25T07:01:06.579Z,22.63
2023-01-25T07:03:34.808Z,22.43
2023-01-25T07:06:07.451Z,21.47
2023-01-25T07:08:34.851Z,21.24
2023-01-25T07:11:05.197Z,21.98
2023-01-25T07:13:33.991Z,21.44
2023-01-25T07:16:05.358Z,21.61
2023-01-25T07:18:33.268Z,22.60
2023-01-25T07:21:11.978Z,22.43
2023-01-25T07:23:38.918Z,21.99
2023-01-25T07:26:06.828Z,21.82
2023-01-25T07:28:33.867Z,20.69
2023-01-25T07:31:07.278Z,21.63
2023-01-25T07:33:34.973Z,22.05
2023-01-25T07:36:02.861Z,21.54
2023-01-25T07:38:29.511Z,22.15
2023-01-25T07:40:56.149Z,21.75
2023-01-25T07:43:23.673Z,21.14
2023-01-25T07:45:50.295Z,21.55
2023-01-25T07:48:18.894Z,21.03
2023-01-25T07:50:46.338Z,21.28
2023-01-25T07:53:13.601Z,20.68
2023-01-25T07:55:40.262Z,21.67
2023-01-25T07:58:06.984Z,21.34
2023-01-25T08:00:33.711Z,20.17
2023-01-25T08:03:00.410Z,21.63
2023-01-25T08:05:27.140Z,20.89
2023-01-25T08:07:53.903Z,20.66
2023-01-25T08:10:20.584Z,20.55
2023-01-25T08:12:47.255Z,20.79
2023-01-25T08:15:14.042Z,20.85
2023-01-25T08:17:40.750Z,20.37
2023-01-25T08:20:08.190Z,20.28
2023-01-25T08:22:34.863Z,19.68
2023-01-25T08:25:01.613Z,19.40
2023-01-25T08:27:28.802Z,19.02
2023-01-25T08:29:55.491Z,20.19
2023-01-25T08:32:22.153Z,19.40
2023-01-25T08:34:48.831Z,19.40
2023-01-25T08:37:15.475Z,20.38
2023-01-25T08:39:42.121Z,19.90
2023-01-25T08:42:08.764Z,19.82
2023-01-25T08:44:35.426Z,19.85
2023-01-25T08:47:02.073Z,20.38
2023-01-25T08:49:28.767Z,20.36
2023-01-25T08:51:55.391Z,20.20
2023-01-25T08:54:22.108Z,20.28
2023-01-25T08:56:48.734Z,20.48
2023-01-25T08:59:15.371Z,19.50
2023-01-25T09:01:42.040Z,20.01
2023-01-25T09:04:08.698Z,20.73
2023-01-25T09:06:35.524Z,21.00
2023-01-25T09:09:02.244Z,20.31
2023-01-25T09:11:29.069Z,19.96
2023-01-25T09:13:55.696Z,20.59
2023-01-25T09:16:24.540Z,20.76
2023-01-25T09:18:51.249Z,20.47
2023-01-25T09:21:19.098Z,20.56
2023-01-25T09:24:05.554Z,20.83
2023-01-25T09:26:34.911Z,19.89
2023-01-25T09:29:01.646Z,18.59
2023-01-25T09:31:28.397Z,18.47
2023-01-25T09:33:55.397Z,18.92
2023-01-25T09:36:22.019Z,19.58
2023-01-25T09:38:48.726Z,19.66
2023-01-25T09:42:14.159Z,20.00
2023-01-25T09:45:06.633Z,19.32
2023-01-25T09:47:44.877Z,18.64
2023-01-25T09:50:33.185Z,19.47
2023-01-25T09:53:27.866Z,19.56
2023-01-25T09:56:01.302Z,18.97
2023-01-25T09:58:36.329Z,19.42
2023-01-25T10:01:32.873Z,19.30
2023-01-25T10:04:16.513Z,19.36
2023-01-25T10:06:55.017Z,18.60
2023-01-25T10:09:33.812Z,19.21
2023-01-25T10:12:15.197Z,19.18
2023-01-25T10:14:41.949Z,19.94
2023-01-25T10:17:20.264Z,19.79
2023-01-25T10:20:02.286Z,19.74
2023-01-25T10:22:38.877Z,20.00
2023-01-25T10:25:44.380Z,20.18
2023-01-25T10:28:23.223Z,19.21
2023-01-25T10:30:55.901Z,19.55
2023-01-25T10:33:22.722Z,20.26
2023-01-25T10:35:49.959Z,19.61
2023-01-25T10:38:34.119Z,20.11
2023-01-25T10:41:26.097Z,19.29
2023-01-25T10:43:52.947Z,19.79
2023-01-25T10:46:25.280Z,19.56
2023-01-25T10:48:51.928Z,19.59
2023-01-25T10:51:38.941Z,19.17
2023-01-25T10:54:06.529Z,18.68
2023-01-25T10:56:36.982Z,19.64
2023-01-25T10:59:14.848Z,19.58
2023-01-25T11:01:42.481Z,19.54
2023-01-25T11:04:35.658Z,20.20
2023-01-25T11:07:04.664Z,19.46
2023-01-25T11:09:36.420Z,19.24
2023-01-25T11:12:18.016Z,20.02
2023-01-25T11:14:49.723Z,20.67
2023-01-25T11:17:30.327Z,19.85
2023-01-25T11:20:14.893Z,19.80
2023-01-25T11:22:56.349Z,20.35
2023-01-25T11:25:32.191Z,19.79
2023-01-25T11:28:14.766Z,20.16
2023-01-25T11:30:41.512Z,19.87
2023-01-25T11:33:13.920Z,19.99
2023-01-25T11:36:10.030Z,20.00
2023-01-25T11:38:43.996Z,19.26
2023-01-25T11:41:45.961Z,19.30
2023-01-25T11:44:42.570Z,19.57
2023-01-25T11:47:45.984Z,19.76
2023-01-25T11:50:15.720Z,19.09
2023-01-25T11:53:11.191Z,18.83
2023-01-25T11:55:53.105Z,18.86
2023-01-25T11:58:25.911Z,19.20
2023-01-25T12:01:11.241Z,19.40
2023-01-25T12:03:40.800Z,20.25
2023-01-25T12:06:19.443Z,19.62
2023-01-25T12:09:16.558Z,19.32
2023-01-25T12:12:05.942Z,19.83
2023-01-25T12:15:00.210Z,20.20
2023-01-25T12:17:52.288Z,20.07
2023-01-25T12:20:27.616Z,20.24
2023-01-25T12:23:28.252Z,19.99
2023-01-25T12:26:10.056Z,20.58
2023-01-25T12:28:58.843Z,20.18
2023-01-25T12:31:40.397Z,19.59
2023-01-25T12:34:35.074Z,19.84
2023-01-25T12:37:13.409Z,20.00
2023-01-25T12:39:49.486Z,19.09
2023-01-25T12:42:38.770Z,19.10
2023-01-25T12:45:15.487Z,19.04
2023-01-25T12:47:52.019Z,19.55
2023-01-25T12:50:29.066Z,19.75
2023-01-25T12:53:09.246Z,19.28
2023-01-25T12:55:36.879Z,18.76
2023-01-25T12:58:37.899Z,18.72
2023-01-25T13:01:14.107Z,18.61
2023-01-25T13:04:23.250Z,17.64
2023-01-25T13:06:57.157Z,18.76
2023-01-25T13:09:34.599Z,18.74
2023-01-25T13:12:04.154Z,18.80
2023-01-25T13:14:35.154Z,17.95
2023-01-25T13:17:13.180Z,18.38
2023-01-25T13:19:41.833Z,17.98
2023-01-25T13:22:11.933Z,18.13
2023-01-25T13:25:03.611Z,18.85
2023-01-25T13:27:32.445Z,18.93
2023-01-25T13:30:20.259Z,18.77
2023-01-25T13:32:49.872Z,18.92
2023-01-25T13:35:45.738Z,18.51
2023-01-25T13:38:12.286Z,19.11
2023-01-25T13:40:40.408Z,18.54
2023-01-25T13:43:12.950Z,18.13
2023-01-25T13:45:42.192Z,19.43
2023-01-25T13:48:08.801Z,18.75
2023-01-25T13:50:43.066Z,18.30
2023-01-25T13:53:15.882Z,18.79
2023-01-25T13:55:51.229Z,19.03
2023-01-25T13:58:26.264Z,19.14
2023-01-25T14:00:58.844Z,18.56
2023-01-25T14:03:31.632Z,19.21
2023-01-25T14:05:59.708Z,19.76
2023-01-25T14:08:26.996Z,20.46
2023-01-25T14:10:55.329Z,20.02
2023-01-25T14:13:21.992Z,19.39
2023-01-25T14:15:56.454Z,20.19
2023-01-25T14:18:30.658Z,20.06
2023-01-25T14:21:18.038Z,19.54
2023-01-25T14:23:45.724Z,19.28
2023-01-25T14:26:22.905Z,18.48
2023-01-25T14:29:01.465Z,19.27
2023-01-25T14:31:35.845Z,19.06
2023-01-25T14:34:03.625Z,19.24
2023-01-25T14:36:32.901Z,19.07
2023-01-25T14:39:00.252Z,18.97
2023-01-25T14:41:37.196Z,18.21
2023-01-25T14:44:12.849Z,18.12
2023-01-25T14:46:40.502Z,18.91
2023-01-25T14:49:16.460Z,18.44
2023-01-25T14:51:54.707Z,18.13
2023-01-25T14:54:28.165Z,18.54
2023-01-25T14:56:56.209Z,18.63
2023-01-25T14:59:32.199Z,18.59
2023-01-25T15:02:16.804Z,18.21
2023-01-25T15:05:20.372Z,18.15
2023-01-25T15:07:53.453Z,19.17
2023-01-25T15:10:31.830Z,19.69
2023-01-25T15:13:14.019Z,19.26
2023-01-25T15:16:00.285Z,19.66
2023-01-25T15:18:48.862Z,19.91
2023-01-25T15:21:20.051Z,20.76
2023-01-25T15:23:48.363Z,19.73
2023-01-25T15:26:21.437Z,20.57
2023-01-25T15:28:49.845Z,20.41
2023-01-25T15:31:23.334Z,20.77
2023-01-25T15:33:50.623Z,20.48
2023-01-25T15:36:17.342Z,20.66
2023-01-25T15:38:45.452Z,20.49
2023-01-25T15:41:13.204Z,20.64
2023-01-25T15:43:40.072Z,20.41
2023-01-25T15:46:16.582Z,20.09
2023-01-25T15:48:45.530Z,20.31
2023-01-25T15:51:13.099Z,20.87
2023-01-25T15:53:40.097Z,20.69
2023-01-25T15:56:15.121Z,20.87
2023-01-25T15:58:52.404Z,20.23
2023-01-25T16:01:20.807Z,20.34
2023-01-25T16:03:47.447Z,19.93
2023-01-25T16:06:31.904Z,20.60
2023-01-25T16:09:21.445Z,21.70
2023-01-25T16:11:53.361Z,20.07
2023-01-25T16:14:20.443Z,20.05
2023-01-25T16:16:50.447Z,20.83
2023-01-25T16:19:22.120Z,20.81
2023-01-25T16:21:49.535Z,20.22
2023-01-25T16:24:16.334Z,20.50
2023-01-25T16:26:50.709Z,20.56
2023-01-25T16:29:17.525Z,19.69
2023-01-25T16:31:44.270Z,20.24
2023-01-25T16:34:10.997Z,20.11
2023-01-25T16:36:39.557Z,20.22
2023-01-25T16:39:18.566Z,19.99
2023-01-25T16:41:45.377Z,20.89
2023-01-25T16:44:12.008Z,20.70
2023-01-25T16:46:38.662Z,20.40
2023-01-25T16:49:05.723Z,21.52
2023-01-25T16:51:33.044Z,20.41
2023-01-25T16:53:59.714Z,20.33
2023-01-25T16:56:29.727Z,20.30
2023-01-25T16:59:00.376Z,20.49
2023-01-25T17:01:27.201Z,20.91
2023-01-25T17:03:55.483Z,20.77
2023-01-25T17:06:31.690Z,21.69
2023-01-25T17:09:09.461Z,21.14
2023-01-25T17:11:39.479Z,21.10
2023-01-25T17:14:06.482Z,21.07
2023-01-25T17:16:33.321Z,21.15
2023-01-25T17:19:10.469Z,20.66
2023-01-25T17:21:37.129Z,21.11
2023-01-25T17:24:04.112Z,21.57
2023-01-25T17:26:32.396Z,22.63
2023-01-25T17:29:01.707Z,21.89
2023-01-25T17:31:32.035Z,21.21
2023-01-25T17:34:03.310Z,21.38
2023-01-25T17:36:30.343Z,22.04
2023-01-25T17:39:03.044Z,22.45
2023-01-25T17:41:31.645Z,22.67
2023-01-25T17:43:59.403Z,28.61
2023-01-25T17:46:32.347Z,28.44
2023-01-25T17:49:00.905Z,24.49
2023-01-25T17:51:28.120Z,23.90
2023-01-25T17:53:54.802Z,23.54
2023-01-25T17:56:21.469Z,24.50
2023-01-25T17:58:48.109Z,25.87
2023-01-25T18:01:29.097Z,22.80
2023-01-25T18:03:56.697Z,22.77
2023-01-25T18:06:27.143Z,22.72
2023-01-25T18:08:57.196Z,22.42
2023-01-25T18:11:26.043Z,22.53
2023-01-25T18:13:57.892Z,22.82
2023-01-25T18:16:26.732Z,22.13
2023-01-25T18:18:56.311Z,22.73
2023-01-25T18:21:26.117Z,22.79
2023-01-25T18:23:58.822Z,23.54
2023-01-25T18:26:34.854Z,22.92
2023-01-25T18:29:31.167Z,22.10
2023-01-25T18:31:57.911Z,22.11
2023-01-25T18:34:24.638Z,22.36
2023-01-25T18:36:51.340Z,22.84
2023-01-25T18:39:18.013Z,22.56
2023-01-25T18:41:44.823Z,22.92
2023-01-25T18:44:11.517Z,22.99
2023-01-25T18:46:38.210Z,23.76
2023-01-25T18:49:04.936Z,22.79
2023-01-25T18:51:31.575Z,25.62
2023-01-25T18:53:58.211Z,24.01
2023-01-25T18:56:24.979Z,23.63
2023-01-25T18:58:51.747Z,24.46
2023-01-25T19:01:21.244Z,23.97
2023-01-25T19:03:51.745Z,24.81
2023-01-25T19:06:19.767Z,23.72
2023-01-25T19:08:47.050Z,23.95
2023-01-25T19:11:16.889Z,26.41
2023-01-25T19:13:44.258Z,25.06
2023-01-25T19:16:14.434Z,26.26
2023-01-25T19:18:43.766Z,26.81
2023-01-25T19:21:11.082Z,25.10
2023-01-25T19:23:39.553Z,25.77
2023-01-25T19:26:10.675Z,27.66
2023-01-25T19:28:37.440Z,31.95
2023-01-25T19:31:09.772Z,26.61
2023-01-25T19:33:37.490Z,26.09
2023-01-25T19:36:06.394Z,25.80
2023-01-25T19:38:38.893Z,26.28
2023-01-25T19:41:08.267Z,25.71
2023-01-25T19:43:35.295Z,25.32
2023-01-25T19:46:19.022Z,25.45
2023-01-25T19:48:49.779Z,27.74
2023-01-25T19:51:24.768Z,26.83
2023-01-25T19:54:04.333Z,24.86
2023-01-25T19:56:34.040Z,27.74
2023-01-25T19:59:03.600Z,27.34
2023-01-25T20:01:30.657Z,27.54
2023-01-25T20:03:58.917Z,26.00
2023-01-25T20:06:26.996Z,26.34
2023-01-25T20:08:54.022Z,25.93
2023-01-25T20:11:23.691Z,25.43
2023-01-25T20:13:53.917Z,25.76
2023-01-25T20:16:20.769Z,27.06
2023-01-25T20:18:49.140Z,26.28
2023-01-25T20:21:22.187Z,25.92
2023-01-25T20:23:51.706Z,26.63
2023-01-25T20:26:26.145Z,26.67
2023-01-25T20:28:55.089Z,26.27
2023-01-25T20:31:31.421Z,26.12
2023-01-25T20:34:01.331Z,25.91
2023-01-25T20:36:32.009Z,25.60
2023-01-25T20:38:58.888Z,26.35
2023-01-25T20:41:25.991Z,25.68
2023-01-25T20:43:55.031Z,25.48
2023-01-25T20:46:21.970Z,27.57
2023-01-25T20:48:49.015Z,27.64
2023-01-25T20:51:16.306Z,27.71
2023-01-25T20:53:45.200Z,27.16
2023-01-25T20:56:14.054Z,25.93
2023-01-25T20:58:41.423Z,26.18
2023-01-25T21:01:19.449Z,26.20
2023-01-25T21:03:46.927Z,27.38
2023-01-25T21:06:14.198Z,27.22
2023-01-25T21:08:41.023Z,27.02
2023-01-25T21:11:08.580Z,30.08
2023-01-25T21:13:35.356Z,27.20
2023-01-25T21:16:07.454Z,30.07
2023-01-25T21:18:46.800Z,28.92
2023-01-25T21:21:19.604Z,26.26
2023-01-25T21:23:48.126Z,24.83
2023-01-25T21:26:26.720Z,26.15
2023-01-25T21:28:54.357Z,26.19
2023-01-25T21:31:23.850Z,27.45
2023-01-25T21:33:50.815Z,26.77
2023-01-25T21:36:18.851Z,28.82
2023-01-25T21:38:48.310Z,25.93
2023-01-25T21:41:21.026Z,24.71
2023-01-25T21:43:48.933Z,24.76
2023-01-25T21:46:15.526Z,24.99
2023-01-25T21:48:42.151Z,24.26
2023-01-25T21:51:13.201Z,24.17
2023-01-25T21:53:42.140Z,23.99
2023-01-25T21:56:08.877Z,24.58
2023-01-25T21:58:35.496Z,23.86
2023-01-25T22:01:02.186Z,23.72
2023-01-25T22:03:28.898Z,24.78
2023-01-25T22:05:55.630Z,24.47
2023-01-25T22:08:22.254Z,24.31
2023-01-25T22:10:48.860Z,23.58
2023-01-25T22:13:15.463Z,23.05
2023-01-25T22:15:42.181Z,23.49
2023-01-25T22:18:11.845Z,22.28
2023-01-25T22:20:40.952Z,23.16
2023-01-25T22:23:07.562Z,23.06
2023-01-25T22:25:34.257Z,22.49
2023-01-25T22:28:04.197Z,22.03
2023-01-25T22:30:30.842Z,22.94
2023-01-25T22:32:57.472Z,22.58
2023-01-25T22:35:24.085Z,22.32
2023-01-25T22:37:50.707Z,21.48
2023-01-25T22:40:17.380Z,21.85
2023-01-25T22:42:44.030Z,22.20
2023-01-25T22:45:10.770Z,22.15
2023-01-25T22:47:37.388Z,22.13
2023-01-25T22:50:04.347Z,21.83
2023-01-25T22:52:30.977Z,21.68
2023-01-25T22:54:57.587Z,21.71
2023-01-25T22:57:24.176Z,21.13
2023-01-25T22:59:50.988Z,21.80
2023-01-25T23:02:17.573Z,20.36
2023-01-25T23:04:44.255Z,20.62
2023-01-25T23:07:10.889Z,20.79
2023-01-25T23:09:38.552Z,20.90
2023-01-25T23:12:05.381Z,19.89
2023-01-25T23:14:32.018Z,20.14
2023-01-25T23:16:58.687Z,20.51
2023-01-25T23:19:26.124Z,20.10
2023-01-25T23:21:52.766Z,20.42
2023-01-25T23:24:19.466Z,20.36
2023-01-25T23:26:46.501Z,20.21
2023-01-25T23:29:13.955Z,19.90
2023-01-25T23:31:40.715Z,20.38
2023-01-25T23:34:07.483Z,20.67
2023-01-25T23:36:37.464Z,20.48
2023-01-25T23:39:04.236Z,20.74
2023-01-25T23:41:31.558Z,21.27
2023-01-25T23:43:58.469Z,21.56
2023-01-25T23:46:26.199Z,20.61
2023-01-25T23:48:52.894Z,20.98
2023-01-25T23:51:19.933Z,20.98
2023-01-25T23:53:47.440Z,20.62
2023-01-25T23:56:19.479Z,20.07
2023-01-25T23:58:47.328Z,20.53
